Terminal Aerodrome Forecast
Issued by NWS Grand Forks, ND

Home | Current Version | Previous Version | Text Only | Print | Product List | Glossary On
Versions: 1 2 3 4 5 6 7 8 9 10 11 12 13 14
000
FTUS43 KFGF 221400 AAA
TAFFAR
TAF AMD
KFAR 221410Z 2214/2312 14010KT 4SM BR OVC003
      TEMPO 2214/2216 OVC005
     FM221600 10010KT 2SM -RA BR OVC005
     FM230000 07010KT 2SM -RASN BR OVC005
     FM230300 04011KT 2SM -SN OVC005=

USA.gov is the U.S. government's official web portal to all federal, state and local government web resources and services.